This is the latest recevied weather packets stored in our database for station/object I3RKE-10. If no packets are shown the sender has not sent any weather packets the latest 10 day(s).
| Time | Temp. | Humidity | Pressure | Rain* | Wind** | Luminosity | Snow |
|---|---|---|---|---|---|---|---|
| 1778060527 | 16.67° C | 78% | 1005.4 hPa | - | - | - | - |
| 1778059627 | 16.67° C | 81% | 1005.5 hPa | - | - | - | - |
| 1778058726 | 17.22° C | 81% | 1005.3 hPa | - | - | - | - |
| 1778057826 | 17.22° C | 81% | 1005.1 hPa | - | - | - | - |
| 1778056926 | 17.22° C | 81% | 1005 hPa | - | - | - | - |
| 1778056026 | 16.67° C | 82% | 1004.8 hPa | - | - | - | - |
| 1778055126 | 17.22° C | 79% | 1004.9 hPa | - | - | - | - |
| 1778054226 | 16.67° C | 82% | 1004.6 hPa | - | - | - | - |
| 1778053326 | 15.56° C | 84% | 1004.7 hPa | - | - | - | - |
| 1778052482 | 15.56° C | 83% | 1004.9 hPa | - | - | - | - |
| 1778052425 | 15.56° C | 83% | 1004.9 hPa | - | - | - | - |
| 1778051525 | 16.11° C | 81% | 1005.2 hPa | - | - | - | - |
| 1778050625 | 15.56° C | 84% | 1005.1 hPa | - | - | - | - |
| 1778049725 | 15.56° C | 85% | 1005.1 hPa | - | - | - | - |
| 1778048825 | 15° C | 86% | 1005.2 hPa | - | - | - | - |
| 1778047925 | 15° C | 87% | 1005.1 hPa | - | - | - | - |
| 1778047025 | 15° C | 86% | 1005.2 hPa | - | - | - | - |
| 1778046125 | 15° C | 85% | 1005.1 hPa | - | - | - | - |
| 1778045225 | 14.44° C | 83% | 1005.3 hPa | - | - | - | - |
| 1778044325 | 13.89° C | 83% | 1005.4 hPa | - | - | - | - |
| 1778043425 | 13.89° C | 85% | 1005.3 hPa | - | - | - | - |
| 1778042524 | 13.33° C | 86% | 1005 hPa | - | - | - | - |
| 1778041624 | 12.78° C | 87% | 1005 hPa | - | - | - | - |
| 1778040724 | 12.22° C | 88% | 1005 hPa | - | - | - | - |
| 1778039824 | 12.78° C | 88% | 1005.1 hPa | - | - | - | - |
* Rain since midnight (hover to see other rain measurements)
** Current wind speed in m/s (hover to see current wind gust speed)